Terminal Aerodrome Forecast
Issued by NWS

Home | Current Version | Previous Version | Text Only | Print | Product List | Glossary On
Versions: 1 2 3 4 5 6 7 8 9 10 11 12 13 14 15 16 17 18 19 20 21 22 23 24 25 26 27 28 29 30 31 32 33 34 35 36 37 38 39 40 41 42 43 44 45 46 47 48 49 50
000
FTUS41 KCTP 250842 AAD
TAFBFD
TAF AMD
KBFD 250842Z 2509/2606 VRB03KT 4SM BR VCSH BKN002
      TEMPO 2510/2512 4SM -SHRA BR OVC025
     FM251200 25006KT 5SM -SHRA BR VCTS SCT015 BKN040CB
     FM251500 26010G15KT 6SM -SHRA BKN035
      TEMPO 2516/2519 3SM -TSRA OVC035CB
     FM252000 28012G22KT P6SM SCT050
     FM252200 29007KT P6SM SKC=

USA.gov is the U.S. government's official web portal to all federal, state and local government web resources and services.